Skip Navigation Links
NOAA logo - Click to go to the NOAA homepage
NOAA's National Weather Service
Alaska Aviation Weather Unit
  NWS logo - Click to go to the NWS homepage
Left Navbar Graphic     21 AKDT = 05 GMT

   
NOAA is celebrating 200 years of science, service, and stewardship. Visit the NOAA 200th celebration Web site to learn more.
USA.gov is the U.S. Government's official Web portal to all Federal, state and local government Web resources and services.
Facebook
NWS on Facebook

Important Change Regarding the AAWU Web Presence

 

Over the last several months, the AAWU has been working to navigate its webpages to a nationally supported server. Security, as well as other needs, have necessitated the change.  In the process, we have made an effort to enhance the functionality of our website, as well as some of our products. As of June 27, 2017, aawu.arh.noaa.gov will be discontinued. The new AAWU web address is weather.gov/aawu. It is now live and will run in-parallel with the old site until it is discontinued. Please send any feedback or questions regarding the new webpages to nws.ar.aawu.webauthors@noaa.gov.  Thank you for your patience during this time of transition.
AAWU Home :: Display TAF Add Bookmark
TESTM CENA2 252317Z AUTO 2605KT 10SM  FEW090 SCT100 23/04 A2994 RMK A02 SLP064 T02260043

TESTM CENA2 252347Z AUTO 3605KT 10SM  BKN060 21/04 A2993 RMK A02 SLP062 T02110045

TESTM CENA2 260017Z AUTO 3604KT 10SM  FEW060 BKN070 BKN110 21/04 A2993 RMK A02 SLP060 T02060038

TESTM CENA2 260047Z AUTO 00000KT 10SM  BKN075 21/03 A2992 RMK A02 SLP059 T02070032

TESTM CENA2 260117Z AUTO 1403KT 10SM  BKN070 20/07 A2992 RMK A02 SLP058 T01980072

TESTM CENA2 260147Z AUTO 3607KT 10SM  BKN075 BKN100 19/03 A2992 RMK A02 SLP059 T01940032

TESTM CENA2 260217Z AUTO 3204KT 10SM  SCT075 BKN120 19/03 A2992 RMK A02 SLP059 T01890029

TESTM CENA2 260247Z AUTO 27012KT 10SM -SHRA BKN080 16/07 A2993 RMK A02 SLP060 T01550070

TESTM CENA2 260317Z AUTO 00000KT 10SM -SHRA OVC060 17/05 A2992 RMK A02 SLP058 T01740053

TESTM CENA2 260347Z AUTO 00000KT 10SM  SCT065 18/05 A2992 RMK A02 SLP057 T01770049

TESTM CENA2 260417Z AUTO 1002KT 10SM  FEW110 SCT190 17/07 A2992 RMK A02 SLP057 T01710068

TESTM CENA2 260447Z AUTO 00000KT 10SM  SKC 18/05 A2991 RMK A02 SLP054 T01850050

TESTM CENA2 260517Z AUTO 00000KT 10SM  SKC 17/06 A2991 RMK A02 SLP054 T01670063


NOAA's National Weather Service
Alaska Aviation Weather Unit
6930 Sand Lake Road
Anchorage, AK 99502-1845
Disclaimer
Credits
Glossary
Privacy Policy
About Us
Career Opportunities
Contact AAWU Internet Services Site last modified: April, 17th 2012